Time;durP1;ratioP1;P1;durP2;ratioP2;P2;SDS_P1;SDS_P2;PMS_P1;PMS_P2;Temp;Humidity;BMP_temperature;BMP_pressure;BME280_temperature;BME280_humidity;BME280_pressure;Samples;Min_cycle;Max_cycle;Signal;HPM_P1;HPM_P2
2022/09/01 00:01:25;;;;;;;;;15.33;14.00;;;;;22.03;54.60;100973.25;5090330;27;45431;-61
2022/09/01 00:03:52;;;;;;;;;17.00;16.00;;;;;22.02;54.11;100981.53;5090740;27;46042;-58
2022/09/01 00:06:21;;;;;;;;;18.00;14.67;;;;;21.99;54.31;100989.91;5094009;27;45412;-59
2022/09/01 00:08:58;;;;;;;;;14.00;11.00;;;;;21.97;54.32;100989.22;5092936;27;45509;-58
2022/09/01 00:11:25;;;;;;;;;16.00;16.00;;;;;21.96;54.27;100988.38;5095212;27;45535;-57
2022/09/01 00:13:52;;;;;;;;;9.33;9.33;;;;;21.91;54.97;100990.69;5093894;27;45247;-58
2022/09/01 00:16:18;;;;;;;;;11.00;11.00;;;;;21.86;54.80;100981.28;5086025;27;45318;-59
2022/09/01 00:18:48;;;;;;;;;13.00;12.33;;;;;21.81;54.74;100976.34;5091796;27;45494;-57
2022/09/01 00:21:15;;;;;;;;;12.00;12.00;;;;;21.83;55.39;100981.59;5094248;27;45471;-57
2022/09/01 00:23:41;;;;;;;;;17.00;15.00;;;;;21.76;55.49;100976.78;5093771;27;45517;-61
2022/09/01 00:26:06;;;;;;;;;17.00;15.67;;;;;21.73;55.80;100979.78;5096520;27;45610;-58
2022/09/01 00:28:33;;;;;;;;;11.00;11.00;;;;;21.69;55.80;100975.66;5096502;27;46321;-57
2022/09/01 00:30:59;;;;;;;;;14.67;14.33;;;;;21.67;55.54;100977.66;5109568;27;45328;-58
2022/09/01 00:33:25;;;;;;;;;18.67;13.33;;;;;21.70;55.69;100982.78;5094473;27;47198;-58
2022/09/01 00:35:51;;;;;;;;;13.33;13.33;;;;;21.68;55.83;100970.41;5095168;27;46088;-57
2022/09/01 00:38:16;;;;;;;;;18.67;17.00;;;;;21.66;55.94;100973.25;5096611;27;47152;-58
2022/09/01 00:40:42;;;;;;;;;13.67;13.67;;;;;21.68;55.52;100970.41;5081328;27;45480;-58
2022/09/01 00:43:19;;;;;;;;;15.33;15.33;;;;;21.66;56.28;100970.56;5090515;27;45481;-57
2022/09/01 00:45:45;;;;;;;;;14.00;14.00;;;;;21.60;56.06;100968.41;5085186;27;45324;-58
2022/09/01 00:48:10;;;;;;;;;15.67;15.00;;;;;21.61;56.04;100970.13;5094744;27;46934;-57
2022/09/01 00:50:36;;;;;;;;;15.00;15.00;;;;;21.66;56.09;100967.84;5094332;27;45502;-59
2022/09/01 00:53:05;;;;;;;;;15.00;13.67;;;;;21.65;55.86;100971.56;5095248;27;45248;-58
2022/09/01 00:55:33;;;;;;;;;13.00;13.00;;;;;21.58;55.70;100959.59;5094185;27;45413;-58
2022/09/01 00:58:02;;;;;;;;;18.00;16.00;;;;;21.60;56.13;100967.56;5094314;27;47157;-58
2022/09/01 01:00:29;;;;;;;;;16.00;14.67;;;;;21.57;56.09;100966.03;5084636;27;45238;-58
2022/09/01 01:02:55;;;;;;;;;15.00;14.00;;;;;21.58;56.02;100975.84;5078682;27;45485;-57
2022/09/01 01:05:31;;;;;;;;;15.33;15.33;;;;;21.59;56.25;100965.88;5094468;27;45471;-57
2022/09/01 01:08:00;;;;;;;;;13.00;9.33;;;;;21.48;56.30;100956.06;5091223;27;46781;-58
2022/09/01 01:10:31;;;;;;;;;13.33;13.33;;;;;21.51;56.32;100953.09;5108513;27;45496;-58
2022/09/01 01:13:00;;;;;;;;;16.67;13.33;;;;;21.48;56.40;100956.94;5102097;27;45419;-57
2022/09/01 01:15:27;;;;;;;;;14.67;13.67;;;;;21.43;56.70;100955.66;5095174;27;45338;-58
2022/09/01 01:17:53;;;;;;;;;15.33;13.00;;;;;21.36;57.03;100954.56;5098477;27;45420;-57
2022/09/01 01:23:35;;;;;;;;;15.33;15.00;;;;;21.36;57.13;100951.88;5100506;27;45428;-58
2022/09/01 01:26:03;;;;;;;;;17.67;15.33;;;;;21.37;56.94;100961.69;5082623;27;45331;-58
2022/09/01 01:28:34;;;;;;;;;12.33;10.67;;;;;21.33;58.20;100958.41;5098041;27;45681;-58
2022/09/01 01:31:04;;;;;;;;;13.33;13.33;;;;;21.25;58.22;100954.72;5095872;27;45469;-58
2022/09/01 01:33:39;;;;;;;;;15.00;14.00;;;;;21.21;57.77;100954.97;5097581;27;45378;-59
2022/09/01 01:36:06;;;;;;;;;14.00;13.00;;;;;21.24;57.94;100955.72;5078694;27;45594;-58
2022/09/01 01:38:34;;;;;;;;;13.67;13.67;;;;;21.26;57.58;100960.00;5078282;27;45812;-57
2022/09/01 01:41:02;;;;;;;;;13.33;13.33;;;;;21.28;57.98;100966.13;5090192;27;45514;-57
2022/09/01 01:43:28;;;;;;;;;15.00;14.00;;;;;21.29;57.70;100956.16;5097742;27;45425;-58
2022/09/01 01:46:01;;;;;;;;;19.00;13.67;;;;;21.21;58.24;100960.38;5097068;27;46087;-58
2022/09/01 01:48:28;;;;;;;;;16.00;13.67;;;;;21.16;58.80;100957.28;5088495;27;46138;-57
2022/09/01 01:50:58;;;;;;;;;13.33;11.00;;;;;21.12;58.77;100957.72;5098635;27;45450;-57
2022/09/01 01:53:24;;;;;;;;;13.33;13.33;;;;;21.04;59.53;100957.56;5098617;27;45385;-58
2022/09/01 01:55:50;;;;;;;;;15.00;12.00;;;;;21.04;59.24;100963.84;5094255;27;45241;-58
2022/09/01 01:58:18;;;;;;;;;16.00;14.00;;;;;21.05;58.80;100957.44;5096445;27;46986;-58
2022/09/01 02:00:45;;;;;;;;;16.67;13.33;;;;;21.08;58.79;100959.84;5092479;27;45586;-57
2022/09/01 02:03:11;;;;;;;;;17.33;16.33;;;;;21.10;58.85;100963.28;5078990;27;45281;-57
2022/09/01 02:05:38;;;;;;;;;13.00;12.67;;;;;21.09;58.99;100966.09;5077278;27;45844;-58
2022/09/01 02:08:07;;;;;;;;;15.00;13.67;;;;;21.03;59.01;100954.03;5080598;27;45677;-58
2022/09/01 02:10:37;;;;;;;;;14.33;14.33;;;;;21.04;58.76;100958.44;5096138;27;46001;-59
2022/09/01 02:13:06;;;;;;;;;14.00;14.00;;;;;21.04;59.13;100958.44;5084154;27;45489;-59
2022/09/01 02:15:43;;;;;;;;;13.67;13.67;;;;;20.97;59.73;100951.06;5094106;27;45583;-59
2022/09/01 02:18:15;;;;;;;;;15.33;12.33;;;;;20.93;60.34;100961.28;5096570;27;46662;-58
2022/09/01 02:20:42;;;;;;;;;12.67;12.33;;;;;20.92;60.01;100965.00;5097779;27;45702;-58
2022/09/01 02:23:10;;;;;;;;;12.00;11.33;;;;;20.95;59.75;100969.25;5092807;27;45511;-58
2022/09/01 02:25:38;;;;;;;;;17.67;15.00;;;;;20.94;59.68;100965.69;5094683;27;45627;-58
2022/09/01 02:28:04;;;;;;;;;11.00;11.00;;;;;20.95;59.75;100969.25;5090503;27;46571;-57
2022/09/01 02:30:33;;;;;;;;;10.33;10.33;;;;;20.91;59.85;100963.28;5096240;27;45237;-57
2022/09/01 02:32:59;;;;;;;;;11.33;11.33;;;;;20.85;59.93;100953.06;5098552;27;45295;-59
2022/09/01 02:35:36;;;;;;;;;14.00;11.33;;;;;20.81;60.20;100967.84;5097725;27;45606;-57
2022/09/01 02:38:03;;;;;;;;;14.00;10.00;;;;;20.79;60.22;100959.88;5094630;27;45493;-57
2022/09/01 02:40:30;;;;;;;;;12.00;12.00;;;;;20.80;60.25;100966.97;5085309;27;45544;-58
2022/09/01 02:42:59;;;;;;;;;13.00;13.00;;;;;20.82;60.49;100974.94;5096167;27;45455;-57
2022/09/01 02:45:28;;;;;;;;;16.33;12.67;;;;;20.78;60.19;100968.13;5096352;27;45490;-59
2022/09/01 02:47:56;;;;;;;;;11.00;11.00;;;;;20.75;60.04;100960.31;5088147;27;45633;-57
2022/09/01 02:50:23;;;;;;;;;14.33;13.67;;;;;20.79;60.11;100957.16;5094989;27;45355;-58
2022/09/01 02:52:49;;;;;;;;;15.00;14.33;;;;;20.77;60.99;100964.56;5079961;27;45313;-57
2022/09/01 02:55:21;;;;;;;;;14.00;13.00;;;;;20.72;60.37;100966.88;5079176;27;45816;-57
2022/09/01 02:57:54;;;;;;;;;12.33;12.33;;;;;20.63;60.54;100953.34;5078449;27;46131;-57
2022/09/01 03:00:21;;;;;;;;;14.00;13.00;;;;;20.68;60.47;100956.47;5090972;27;45567;-58
2022/09/01 03:02:51;;;;;;;;;11.33;11.33;;;;;20.69;60.56;100958.16;5099063;27;45605;-57
2022/09/01 03:05:24;;;;;;;;;12.33;12.33;;;;;20.66;60.40;100953.91;5097144;27;45449;-58
2022/09/01 03:07:53;;;;;;;;;13.67;12.00;;;;;20.71;60.44;100961.59;5096616;27;45415;-58
2022/09/01 03:10:20;;;;;;;;;14.33;13.67;;;;;20.69;60.76;100963.56;5093522;27;45672;-58
2022/09/01 03:12:45;;;;;;;;;12.00;12.00;;;;;20.63;60.91;100961.44;5084926;27;45444;-58
2022/09/01 03:15:12;;;;;;;;;17.00;16.33;;;;;20.55;61.59;100957.59;5099782;27;45590;-57
2022/09/01 03:17:37;;;;;;;;;13.00;11.67;;;;;20.51;61.01;100958.88;5097769;27;46229;-58
2022/09/01 03:20:03;;;;;;;;;23.67;22.00;;;;;20.49;61.34;100955.47;5078752;27;45324;-57
2022/09/01 03:22:29;;;;;;;;;15.00;15.00;;;;;20.45;62.10;100959.47;5076568;27;45298;-58
2022/09/01 03:24:55;;;;;;;;;17.33;16.00;;;;;20.39;61.90;100951.88;5081225;27;45602;-58
2022/09/01 03:27:20;;;;;;;;;11.00;11.00;;;;;20.33;62.17;100942.50;5095344;27;46205;-57
2022/09/01 03:29:46;;;;;;;;;14.00;14.00;;;;;20.37;61.78;100951.16;5097955;27;45266;-57
2022/09/01 03:32:11;;;;;;;;;14.67;14.67;;;;;20.38;61.73;100954.72;5098910;27;45272;-59
2022/09/01 03:34:38;;;;;;;;;12.67;12.67;;;;;20.34;62.05;100946.03;5098659;27;45491;-58
2022/09/01 03:37:08;;;;;;;;;12.67;12.00;;;;;20.34;61.73;100948.75;5094846;27;46219;-57
2022/09/01 03:39:34;;;;;;;;;11.33;10.00;;;;;20.34;61.92;100948.75;5096355;27;45482;-58
2022/09/01 03:42:00;;;;;;;;;13.00;13.00;;;;;20.33;62.01;100950.59;5091474;27;45469;-58
2022/09/01 03:44:26;;;;;;;;;18.00;14.00;;;;;20.30;62.03;100942.75;5090039;27;45437;-58
2022/09/01 03:46:51;;;;;;;;;13.33;12.00;;;;;20.29;61.83;100946.44;5096138;27;45452;-58
2022/09/01 03:49:23;;;;;;;;;13.00;12.00;;;;;20.27;62.15;100944.88;5096452;27;45483;-58
2022/09/01 03:51:52;;;;;;;;;13.33;12.33;;;;;20.29;61.80;100951.84;5096294;27;45457;-57
2022/09/01 03:54:18;;;;;;;;;14.67;13.00;;;;;20.25;62.25;100944.16;5095948;27;45341;-58
2022/09/01 03:56:44;;;;;;;;;15.33;12.00;;;;;20.25;62.46;100938.78;5097191;27;46583;-58
2022/09/01 03:59:15;;;;;;;;;17.33;16.33;;;;;20.23;62.21;100933.50;5094495;27;45341;-58
2022/09/01 04:01:42;;;;;;;;;13.00;13.00;;;;;20.25;62.12;100941.47;5095904;27;45401;-58
2022/09/01 04:04:12;;;;;;;;;9.67;9.67;;;;;20.19;62.52;100931.25;5093276;27;45639;-57
2022/09/01 04:06:39;;;;;;;;;11.67;11.00;;;;;20.21;62.23;100943.59;5094928;27;46225;-59
2022/09/01 04:09:04;;;;;;;;;17.00;17.00;;;;;20.21;62.08;100942.75;5094628;27;45526;-57
2022/09/01 04:11:31;;;;;;;;;14.00;14.00;;;;;20.23;61.93;100938.06;5091282;27;45475;-58
2022/09/01 04:13:57;;;;;;;;;13.00;13.00;;;;;20.23;62.53;100935.34;5089114;27;45261;-63
2022/09/01 04:19:18;;;;;;;;;10.67;10.67;;;;;20.16;62.53;100929.66;5095053;27;46990;-57
2022/09/01 04:22:03;;;;;;;;;18.33;17.00;;;;;20.12;62.33;100924.69;5094614;27;45397;-56
2022/09/01 04:24:31;;;;;;;;;14.67;13.67;;;;;20.12;62.49;100928.22;5092970;27;45522;-59
2022/09/01 04:27:00;;;;;;;;;19.00;15.67;;;;;20.15;62.52;100927.94;5095618;27;46490;-58
2022/09/01 04:29:27;;;;;;;;;16.67;14.00;;;;;20.14;62.53;100930.78;5095354;27;45196;-57
2022/09/01 04:32:02;;;;;;;;;17.00;15.67;;;;;20.11;62.68;100936.47;5079944;27;45239;-57
2022/09/01 04:34:35;;;;;;;;;13.33;13.33;;;;;20.14;62.48;100930.78;5087304;27;46773;-57
2022/09/01 04:37:02;;;;;;;;;15.33;15.33;;;;;20.13;62.79;100929.94;5093102;27;46384;-58
2022/09/01 04:39:28;;;;;;;;;14.67;13.00;;;;;20.15;62.39;100929.78;5087619;27;45535;-59
2022/09/01 04:41:54;;;;;;;;;16.67;16.67;;;;;20.11;62.37;100929.22;5094733;27;45577;-57
2022/09/01 04:44:21;;;;;;;;;12.33;10.33;;;;;20.13;62.54;100929.94;5098075;27;45598;-58
2022/09/01 04:46:47;;;;;;;;;16.33;13.33;;;;;20.13;62.75;100929.09;5098903;27;48057;-58
2022/09/01 04:49:18;;;;;;;;;13.33;13.33;;;;;20.13;62.42;100924.53;5099445;27;45431;-57
2022/09/01 04:51:46;;;;;;;;;14.00;13.00;;;;;20.12;62.44;100920.13;5099522;27;45289;-58
2022/09/01 04:54:13;;;;;;;;;19.67;16.33;;;;;20.16;62.16;100934.19;5094177;27;45499;-59
2022/09/01 04:56:40;;;;;;;;;17.00;15.00;;;;;20.15;61.92;100927.09;5099937;27;46179;-59
2022/09/01 04:59:07;;;;;;;;;11.67;11.67;;;;;20.20;62.05;100930.25;5089065;27;45382;-59
2022/09/01 05:01:53;;;;;;;;;16.00;15.00;;;;;20.19;61.95;100928.53;5088573;27;45476;-57
2022/09/01 05:04:23;;;;;;;;;15.33;13.00;;;;;20.16;61.72;100918.00;5099422;27;45334;-59
2022/09/01 05:06:59;;;;;;;;;16.00;14.00;;;;;20.18;62.15;100929.50;5094954;27;47231;-59
2022/09/01 05:09:36;;;;;;;;;16.00;14.00;;;;;20.20;61.74;100933.81;5092124;27;45467;-57
2022/09/01 05:12:14;;;;;;;;;7.67;7.00;;;;;20.20;61.61;100925.69;5111322;27;45471;-59
2022/09/01 05:14:47;;;;;;;;;15.67;13.67;;;;;20.21;62.21;100931.94;5114336;27;45561;-60
2022/09/01 05:17:13;;;;;;;;;14.00;14.00;;;;;20.22;61.59;100936.34;5095645;27;45464;-60
2022/09/01 05:19:41;;;;;;;;;13.67;12.00;;;;;20.22;61.75;100933.66;5085521;27;45462;-58
2022/09/01 05:22:08;;;;;;;;;12.00;12.00;;;;;20.24;61.38;100931.66;5099227;27;45470;-57
2022/09/01 05:24:34;;;;;;;;;12.33;12.33;;;;;20.18;61.45;100926.81;5104488;27;45549;-58
2022/09/01 05:26:59;;;;;;;;;16.33;13.00;;;;;20.26;61.17;100943.16;5098204;27;47043;-59
2022/09/01 05:29:26;;;;;;;;;14.00;14.00;;;;;20.31;61.10;100938.19;5099129;27;45392;-58
2022/09/01 05:31:54;;;;;;;;;14.67;14.00;;;;;20.31;60.97;100938.19;5097867;27;45434;-58
2022/09/01 05:34:28;;;;;;;;;14.33;11.00;;;;;20.28;60.83;100928.53;5087030;27;45588;-60
2022/09/01 05:36:56;;;;;;;;;14.67;14.67;;;;;20.36;60.78;100935.94;5085019;27;45534;-59
2022/09/01 05:39:23;;;;;;;;;13.67;13.00;;;;;20.38;60.61;100933.09;5099104;27;45435;-59
2022/09/01 05:41:48;;;;;;;;;13.00;13.00;;;;;20.43;60.37;100941.66;5096901;27;45518;-58
2022/09/01 05:44:15;;;;;;;;;17.00;16.00;;;;;20.43;60.35;100936.25;5090885;27;45410;-60
2022/09/01 05:46:43;;;;;;;;;12.00;12.00;;;;;20.44;60.30;100928.00;5097964;27;45430;-58
2022/09/01 05:49:12;;;;;;;;;12.00;12.00;;;;;20.48;60.15;100934.00;5097643;27;45394;-62
2022/09/01 05:51:41;;;;;;;;;14.67;14.67;;;;;20.53;60.30;100926.31;5098473;27;45508;-57
2022/09/01 05:54:08;;;;;;;;;14.67;12.67;;;;;20.57;59.93;100934.00;5099526;27;45622;-64
2022/09/01 05:56:38;;;;;;;;;10.33;10.33;;;;;20.61;59.77;100927.31;5093670;27;47051;-63
2022/09/01 05:59:04;;;;;;;;;16.00;15.00;;;;;20.64;59.79;100928.03;5094245;27;45270;-60
2022/09/01 06:01:31;;;;;;;;;18.33;14.33;;;;;20.58;59.72;100922.22;5092073;27;45538;-67
2022/09/01 06:03:58;;;;;;;;;13.67;13.00;;;;;20.66;59.54;100936.84;5099256;27;45364;-56
2022/09/01 06:06:29;;;;;;;;;14.00;13.67;;;;;20.66;59.67;100932.28;5094959;27;46466;-62
2022/09/01 06:08:57;;;;;;;;;12.00;10.67;;;;;20.70;59.41;100932.84;5095879;27;45549;-56
2022/09/01 06:11:25;;;;;;;;;13.00;12.00;;;;;20.72;59.48;100937.13;5081561;27;45352;-58
2022/09/01 06:13:51;;;;;;;;;12.00;11.67;;;;;20.75;59.09;100927.88;5091890;27;45584;-57
2022/09/01 06:16:18;;;;;;;;;14.67;12.67;;;;;20.80;59.05;100936.41;5093088;27;45481;-58
2022/09/01 06:18:44;;;;;;;;;17.00;15.00;;;;;20.84;59.00;100935.13;5095093;27;45542;-56
2022/09/01 06:21:13;;;;;;;;;27.67;25.67;;;;;20.88;58.51;100931.13;5097711;27;45423;-58
2022/09/01 06:23:43;;;;;;;;;14.00;11.67;;;;;20.85;58.49;100926.03;5096275;27;45473;-59
2022/09/01 06:26:22;;;;;;;;;14.50;14.50;;;;;20.92;58.46;100946.06;5086545;27;46022;-56
2022/09/01 06:28:48;;;;;;;;;14.33;13.00;;;;;20.92;58.51;100948.78;5086495;27;45627;-56
2022/09/01 06:31:14;;;;;;;;;13.00;13.00;;;;;20.96;58.27;100949.31;5095495;27;45562;-56
2022/09/01 06:33:39;;;;;;;;;15.00;15.00;;;;;20.99;58.25;100938.25;5099892;27;45571;-55
2022/09/01 06:36:08;;;;;;;;;15.67;14.00;;;;;21.03;58.09;100945.91;5094769;27;46017;-54
2022/09/01 06:38:34;;;;;;;;;13.33;13.33;;;;;21.04;58.07;100942.22;5091145;27;45576;-55
2022/09/01 06:41:04;;;;;;;;;14.33;14.00;;;;;21.03;58.15;100945.91;5096135;27;45288;-55
2022/09/01 06:43:31;;;;;;;;;13.33;12.00;;;;;21.06;58.05;100940.22;5091089;27;45481;-56
2022/09/01 06:46:00;;;;;;;;;13.00;11.00;;;;;21.10;58.02;100947.06;5077660;27;46410;-56
2022/09/01 06:48:26;;;;;;;;;11.33;10.67;;;;;21.15;57.79;100943.91;5087692;27;45413;-56
2022/09/01 06:50:51;;;;;;;;;13.33;12.67;;;;;21.19;58.03;100945.31;5098929;27;45597;-56
2022/09/01 06:53:17;;;;;;;;;12.67;12.67;;;;;21.20;57.57;100937.03;5088665;27;45597;-56
2022/09/01 06:55:47;;;;;;;;;15.00;14.67;;;;;21.26;57.62;100945.63;5092737;27;46878;-57
2022/09/01 06:58:14;;;;;;;;;14.67;13.00;;;;;21.29;57.25;100951.59;5096619;27;45472;-57
2022/09/01 07:00:41;;;;;;;;;15.67;14.33;;;;;21.32;57.17;100939.59;5085165;27;45502;-57
2022/09/01 07:03:14;;;;;;;;;14.00;12.67;;;;;21.33;57.18;100944.03;5088931;27;45374;-56
2022/09/01 07:05:41;;;;;;;;;14.33;13.67;;;;;21.31;56.92;100937.91;5097659;27;46255;-56
2022/09/01 07:08:09;;;;;;;;;15.00;12.00;;;;;21.39;57.07;100946.16;5094100;27;45729;-57
2022/09/01 07:10:44;;;;;;;;;15.67;14.00;;;;;21.44;57.21;100951.97;5092686;27;45500;-56
2022/09/01 07:13:17;;;;;;;;;13.33;12.33;;;;;21.40;57.24;100931.63;5101173;27;45322;-58
2022/09/01 07:15:43;;;;;;;;;15.00;15.00;;;;;21.52;56.84;100943.97;5078900;27;46648;-56
2022/09/01 07:18:11;;;;;;;;;14.00;11.33;;;;;21.53;57.03;100937.56;5091569;27;45377;-56
2022/09/01 07:20:40;;;;;;;;;15.00;13.33;;;;;21.65;56.94;100941.78;5097100;27;45493;-57
2022/09/01 07:23:07;;;;;;;;;14.67;13.00;;;;;21.67;56.91;100947.03;5086861;27;45551;-56
2022/09/01 07:25:37;;;;;;;;;13.67;12.33;;;;;21.70;56.88;100941.31;5093185;27;45566;-55
2022/09/01 07:28:03;;;;;;;;;12.00;11.00;;;;;21.79;56.32;100956.69;5094635;27;45493;-57
2022/09/01 07:30:30;;;;;;;;;15.00;14.00;;;;;21.76;56.42;100944.31;5084489;27;45777;-57
2022/09/01 07:32:56;;;;;;;;;13.00;13.00;;;;;21.84;56.67;100958.94;5086992;27;45604;-56
2022/09/01 07:35:22;;;;;;;;;13.67;13.67;;;;;21.85;56.82;100957.91;5104033;27;46290;-55
2022/09/01 07:37:49;;;;;;;;;16.33;13.67;;;;;21.83;56.32;100949.09;5098250;27;45454;-56
2022/09/01 07:40:19;;;;;;;;;12.67;11.00;;;;;21.87;56.44;100951.34;5087305;27;46888;-56
2022/09/01 07:42:46;;;;;;;;;12.67;12.67;;;;;21.91;56.38;100954.63;5081857;27;45796;-56
2022/09/01 07:45:15;;;;;;;;;18.33;15.67;;;;;21.92;56.22;100948.22;5089478;27;45463;-56
2022/09/01 07:47:43;;;;;;;;;18.00;14.00;;;;;21.98;56.08;100961.97;5083990;27;45377;-56
2022/09/01 07:50:11;;;;;;;;;16.00;15.00;;;;;22.01;56.33;100955.44;5109591;27;45575;-55
2022/09/01 07:52:43;;;;;;;;;16.67;14.00;;;;;22.03;56.39;100950.72;5085929;27;45512;-56
2022/09/01 07:55:13;;;;;;;;;15.33;14.33;;;;;22.07;55.79;100946.72;5077284;27;45576;-58
2022/09/01 07:57:41;;;;;;;;;18.00;14.00;;;;;22.10;56.23;100954.53;5083320;27;45495;-56
2022/09/01 08:00:10;;;;;;;;;17.33;14.00;;;;;22.11;55.90;100953.53;5090135;27;45617;-55
2022/09/01 08:02:37;;;;;;;;;13.33;13.33;;;;;22.19;56.16;100967.19;5091268;27;45457;-55
2022/09/01 08:05:07;;;;;;;;;14.33;12.67;;;;;22.24;55.82;100955.88;5082848;27;46108;-56
2022/09/01 08:07:33;;;;;;;;;17.00;13.67;;;;;22.29;55.16;100956.28;5087464;27;45511;-57
2022/09/01 08:09:59;;;;;;;;;10.33;9.00;;;;;22.29;55.53;100956.28;5090681;27;45496;-57
2022/09/01 08:12:24;;;;;;;;;14.00;14.00;;;;;22.30;55.31;100945.31;5100151;27;45978;-57
2022/09/01 08:14:52;;;;;;;;;16.67;14.00;;;;;22.42;55.47;100950.50;5088544;27;47083;-54
2022/09/01 08:17:17;;;;;;;;;14.33;12.67;;;;;22.46;55.25;100946.47;5093968;27;45518;-56
2022/09/01 08:19:43;;;;;;;;;17.67;17.67;;;;;22.56;54.76;100955.38;5088196;27;45626;-57
2022/09/01 08:22:08;;;;;;;;;13.00;13.00;;;;;22.62;54.68;100957.47;5090690;27;45421;-57
2022/09/01 08:24:33;;;;;;;;;16.00;16.00;;;;;22.67;55.20;100950.59;5092683;27;46464;-56
2022/09/01 08:26:59;;;;;;;;;17.00;15.00;;;;;22.73;53.96;100946.38;5089310;27;45461;-56
2022/09/01 08:29:24;;;;;;;;;15.67;15.67;;;;;22.79;53.76;100953.91;5090248;27;45716;-56
2022/09/01 08:31:50;;;;;;;;;19.00;16.33;;;;;22.83;53.47;100951.75;5096434;27;45496;-54
2022/09/01 08:34:15;;;;;;;;;14.33;14.33;;;;;22.97;53.93;100951.19;5090516;27;46168;-57
2022/09/01 08:36:41;;;;;;;;;16.00;15.00;;;;;23.05;53.59;100953.09;5084351;27;45451;-56
2022/09/01 08:39:06;;;;;;;;;14.67;14.67;;;;;23.20;53.08;100963.25;5096194;27;45476;-57
2022/09/01 08:41:40;;;;;;;;;29.33;26.33;;;;;23.23;53.11;100957.50;5095449;27;45670;-57
2022/09/01 08:44:18;;;;;;;;;16.33;15.00;;;;;23.33;52.93;100962.84;5079485;27;45461;-59
2022/09/01 08:46:43;;;;;;;;;13.67;13.33;;;;;23.48;52.11;100969.38;5090036;27;45390;-57
2022/09/01 08:49:22;;;;;;;;;16.00;13.33;;;;;23.61;52.25;100965.41;5093851;27;45791;-57
2022/09/01 08:52:12;;;;;;;;;17.00;12.67;;;;;23.81;51.84;100964.97;5095466;27;45694;-58
2022/09/01 08:55:00;;;;;;;;;14.00;14.00;;;;;24.04;50.81;100957.09;5096353;27;46462;-56
2022/09/01 08:57:32;;;;;;;;;16.00;14.33;;;;;24.38;50.73;100959.78;5093735;27;45300;-57
2022/09/01 08:59:58;;;;;;;;;14.00;14.00;;;;;24.59;50.04;100956.59;5088429;27;45403;-57
2022/09/01 09:02:54;;;;;;;;;15.67;14.00;;;;;24.83;49.10;100963.91;5086259;27;45386;-58
2022/09/01 09:05:25;;;;;;;;;16.00;14.00;;;;;25.16;48.20;100955.78;5074025;28;45335;-57
2022/09/01 09:08:12;;;;;;;;;10.00;10.00;;;;;25.57;47.68;100971.03;5083361;27;45523;-56
2022/09/01 09:10:58;;;;;;;;;16.75;14.00;;;;;25.85;46.62;100971.47;5094335;27;45558;-58
2022/09/01 09:13:42;;;;;;;;;13.50;12.25;;;;;26.07;46.29;100966.28;5091872;27;45463;-57
2022/09/01 09:16:34;;;;;;;;;16.25;13.00;;;;;26.35;46.22;100966.63;5089013;27;46209;-58
2022/09/01 09:19:31;;;;;;;;;15.25;14.25;;;;;26.68;45.57;100956.38;5071640;28;45477;-57
2022/09/01 09:22:00;;;;;;;;;14.00;13.75;;;;;26.93;44.43;100957.88;5089064;27;45277;-57
2022/09/01 09:24:46;;;;;;;;;14.75;12.50;;;;;27.18;44.02;100957.69;5098434;27;45304;-57
2022/09/01 09:27:36;;;;;;;;;11.75;9.50;;;;;27.34;42.80;100960.25;5097599;27;45541;-56
2022/09/01 09:30:12;;;;;;;;;14.60;12.80;;;;;27.62;42.69;100961.34;5098573;27;45419;-57
2022/09/01 09:32:55;;;;;;;;;12.75;11.00;;;;;27.92;42.30;100953.16;5099056;27;45395;-57
2022/09/01 09:35:23;;;;;;;;;15.50;12.00;;;;;28.14;42.03;100954.91;5091325;27;45341;-58
2022/09/01 09:37:49;;;;;;;;;12.50;9.75;;;;;28.37;40.93;100953.94;5093707;27;46124;-57
2022/09/01 09:40:16;;;;;;;;;12.75;12.75;;;;;28.55;41.55;100946.16;5098782;27;45461;-58
2022/09/01 09:43:00;;;;;;;;;15.50;14.50;;;;;28.48;41.43;100946.06;5100040;27;45420;-59
2022/09/01 09:45:27;;;;;;;;;13.00;13.00;;;;;28.32;41.89;100949.03;5095843;27;45321;-58
2022/09/01 09:47:55;;;;;;;;;17.50;16.25;;;;;28.20;41.92;100951.41;5097649;27;45458;-56
2022/09/01 09:50:30;;;;;;;;;15.60;12.20;;;;;28.06;42.20;100946.81;5099227;27;45340;-58
2022/09/01 09:53:17;;;;;;;;;11.80;11.80;;;;;28.01;41.68;100946.56;5091695;27;45550;-56
2022/09/01 09:56:01;;;;;;;;;14.75;14.75;;;;;27.96;42.33;100949.00;5091149;27;45515;-57
2022/09/01 09:58:39;;;;;;;;;18.25;14.75;;;;;27.85;42.14;100938.53;5104399;27;47264;-57
2022/09/01 10:01:14;;;;;;;;;14.80;14.80;;;;;27.81;43.11;100943.53;5114558;27;45446;-57
2022/09/01 10:03:50;;;;;;;;;16.00;16.00;;;;;27.70;41.98;100937.72;5094318;27;45274;-57
2022/09/01 10:06:33;;;;;;;;;15.00;13.75;;;;;27.62;42.87;100939.47;5096890;27;45438;-57
2022/09/01 10:09:05;;;;;;;;;14.60;13.40;;;;;27.54;42.46;100936.84;5086004;27;45443;-56
2022/09/01 10:11:39;;;;;;;;;14.20;13.80;;;;;27.35;43.28;100942.88;5087155;27;45463;-60
2022/09/01 10:14:10;;;;;;;;;13.00;13.00;;;;;27.29;43.32;100929.94;5095906;27;45436;-58
2022/09/01 10:16:39;;;;;;;;;15.00;11.25;;;;;27.24;43.15;100935.97;5090551;27;45399;-55
2022/09/01 10:19:10;;;;;;;;;14.40;12.80;;;;;27.21;43.15;100941.78;5097521;27;45171;-59
2022/09/01 10:21:41;;;;;;;;;14.20;12.40;;;;;27.13;43.66;100932.84;5083189;27;45365;-57
2022/09/01 10:24:28;;;;;;;;;14.60;12.40;;;;;27.08;42.82;100935.25;5078439;27;45302;-58
2022/09/01 10:26:57;;;;;;;;;11.00;11.00;;;;;27.10;42.59;100933.22;5086323;27;45635;-59
2022/09/01 10:29:46;;;;;;;;;14.00;13.25;;;;;27.15;42.55;100928.03;5095527;27;45424;-59
2022/09/01 10:32:18;;;;;;;;;11.00;11.00;;;;;27.31;42.64;100936.06;5097233;27;46635;-58
2022/09/01 10:34:46;;;;;;;;;10.00;9.60;;;;;27.39;41.96;100926.94;5078319;27;45234;-58
2022/09/01 10:37:13;;;;;;;;;8.75;8.75;;;;;27.43;41.90;100922.78;5096010;27;45348;-58
2022/09/01 10:40:18;;;;;;;;;13.25;13.25;;;;;27.43;42.33;100928.25;5109347;27;47339;-56
2022/09/01 10:42:54;;;;;;;;;11.60;11.60;;;;;27.55;42.11;100919.41;5080210;27;45439;-59
2022/09/01 10:45:30;;;;;;;;;13.00;11.75;;;;;27.63;41.54;100918.47;5088290;27;45411;-59
2022/09/01 10:48:24;;;;;;;;;14.00;12.25;;;;;27.60;41.97;100925.13;5094283;27;45633;-62
2022/09/01 10:50:53;;;;;;;;;17.25;17.00;;;;;27.68;41.27;100913.31;5096442;27;46396;-65
2022/09/01 10:53:34;;;;;;;;;18.60;15.40;;;;;27.73;41.29;100912.72;5098255;27;45188;-59
2022/09/01 10:56:23;;;;;;;;;9.00;8.80;;;;;27.82;40.98;100906.97;5097824;27;45364;-57
2022/09/01 10:59:07;;;;;;;;;11.00;9.50;;;;;27.87;40.26;100920.09;5097407;27;45480;-60
2022/09/01 11:01:38;;;;;;;;;10.80;9.60;;;;;27.95;40.04;100914.50;5097105;27;46328;-70
2022/09/01 11:04:05;;;;;;;;;10.00;10.00;;;;;28.01;40.86;100913.75;5092464;27;45513;-66
2022/09/01 11:06:40;;;;;;;;;9.60;9.60;;;;;28.15;39.93;100912.00;5089601;27;45582;-65
2022/09/01 11:09:16;;;;;;;;;8.00;8.00;;;;;28.21;39.30;100890.19;5082345;27;45328;-60
2022/09/01 11:12:01;;;;;;;;;9.20;9.20;;;;;28.32;39.43;100899.81;5087433;27;45622;-62
2022/09/01 11:14:28;;;;;;;;;11.40;8.60;;;;;28.48;39.01;100904.16;5095544;27;45860;-59
2022/09/01 11:17:27;;;;;;;;;9.60;7.80;;;;;28.61;39.35;100904.31;5097829;27;45223;-61
2022/09/01 11:19:54;;;;;;;;;7.40;7.40;;;;;28.77;38.08;100893.06;5086875;27;45467;-58
2022/09/01 11:22:34;;;;;;;;;8.00;8.00;;;;;28.89;38.24;100892.56;5099229;27;45381;-59
2022/09/01 11:25:34;;;;;;;;;7.80;6.40;;;;;28.99;38.55;100887.59;5089602;27;46004;-55
2022/09/01 11:27:59;;;;;;;;;7.40;6.80;;;;;29.13;38.21;100889.38;5084521;27;45429;-60
2022/09/01 11:30:31;;;;;;;;;10.50;9.50;;;;;29.18;37.20;100895.13;5089739;27;45389;-61